sensor_id;sensor_type;location;lat;lon;timestamp;pressure;altitude;pressure_sealevel;temperature;humidity
13800;BME280;6971;50.028;9.258;2023-11-18T00:04:19;100287.50;;;-0.40;100.00
13800;BME280;6971;50.028;9.258;2023-11-18T00:09:20;100280.56;;;-0.50;100.00
13800;BME280;6971;50.028;9.258;2023-11-18T00:14:20;100274.41;;;-0.63;100.00
13800;BME280;6971;50.028;9.258;2023-11-18T00:19:21;100283.00;;;-0.74;100.00
13800;BME280;6971;50.028;9.258;2023-11-18T00:24:22;100277.78;;;-0.80;100.00
13800;BME280;6971;50.028;9.258;2023-11-18T00:29:22;100277.78;;;-0.80;100.00
13800;BME280;6971;50.028;9.258;2023-11-18T00:34:23;100276.88;;;-0.85;100.00
13800;BME280;6971;50.028;9.258;2023-11-18T00:39:24;100269.97;;;-0.86;100.00
13800;BME280;6971;50.028;9.258;2023-11-18T00:44:24;100281.13;;;-0.94;100.00
13800;BME280;6971;50.028;9.258;2023-11-18T00:49:24;100272.38;;;-1.11;100.00
13800;BME280;6971;50.028;9.258;2023-11-18T00:54:26;100264.56;;;-1.21;100.00
13800;BME280;6971;50.028;9.258;2023-11-18T00:59:27;100271.47;;;-1.16;100.00
13800;BME280;6971;50.028;9.258;2023-11-18T01:04:27;100280.06;;;-1.21;100.00
13800;BME280;6971;50.028;9.258;2023-11-18T01:09:28;100289.56;;;-1.21;100.00
13800;BME280;6971;50.028;9.258;2023-11-18T01:14:28;100294.69;;;-1.27;100.00
13800;BME280;6971;50.028;9.258;2023-11-18T01:19:28;100295.66;;;-1.11;100.00
13800;BME280;6971;50.028;9.258;2023-11-18T01:24:29;100297.25;;;-1.32;100.00
13800;BME280;6971;50.028;9.258;2023-11-18T01:29:29;100291.16;;;-1.37;100.00
13800;BME280;6971;50.028;9.258;2023-11-18T01:34:29;100285.06;;;-1.46;100.00
13800;BME280;6971;50.028;9.258;2023-11-18T01:39:30;100298.69;;;-1.61;100.00
13800;BME280;6971;50.028;9.258;2023-11-18T01:44:31;100303.03;;;-1.58;100.00
13800;BME280;6971;50.028;9.258;2023-11-18T01:49:35;100316.75;;;-1.65;100.00
13800;BME280;6971;50.028;9.258;2023-11-18T01:54:39;100314.28;;;-1.53;100.00
13800;BME280;6971;50.028;9.258;2023-11-18T01:59:40;100312.47;;;-1.60;100.00
13800;BME280;6971;50.028;9.258;2023-11-18T02:04:41;100312.38;;;-1.69;100.00
13800;BME280;6971;50.028;9.258;2023-11-18T02:09:42;100310.88;;;-1.49;100.00
13800;BME280;6971;50.028;9.258;2023-11-18T02:14:44;100307.41;;;-1.52;100.00
13800;BME280;6971;50.028;9.258;2023-11-18T02:19:45;100306.47;;;-1.59;100.00
13800;BME280;6971;50.028;9.258;2023-11-18T02:24:46;100308.13;;;-1.66;100.00
13800;BME280;6971;50.028;9.258;2023-11-18T02:29:47;100308.06;;;-1.71;100.00
13800;BME280;6971;50.028;9.258;2023-11-18T02:35:10;100316.63;;;-1.76;100.00
13800;BME280;6971;50.028;9.258;2023-11-18T02:40:12;100320.06;;;-1.77;100.00
13800;BME280;6971;50.028;9.258;2023-11-18T02:45:16;100319.16;;;-1.82;100.00
13800;BME280;6971;50.028;9.258;2023-11-18T02:50:17;100319.06;;;-1.90;100.00
13800;BME280;6971;50.028;9.258;2023-11-18T02:55:19;100315.66;;;-1.86;100.00
13800;BME280;6971;50.028;9.258;2023-11-18T03:00:21;100313.09;;;-1.86;100.00
13800;BME280;6971;50.028;9.258;2023-11-18T03:05:22;100311.44;;;-1.76;100.00
13800;BME280;6971;50.028;9.258;2023-11-18T03:10:23;100313.28;;;-1.67;100.00
13800;BME280;6971;50.028;9.258;2023-11-18T03:15:23;100308.19;;;-1.60;100.00
13800;BME280;6971;50.028;9.258;2023-11-18T03:20:23;100310.78;;;-1.58;100.00
13800;BME280;6971;50.028;9.258;2023-11-18T03:25:24;100298.00;;;-1.41;100.00
13800;BME280;6971;50.028;9.258;2023-11-18T03:30:24;100302.41;;;-1.29;100.00
13800;BME280;6971;50.028;9.258;2023-11-18T03:35:24;100297.41;;;-1.10;100.00
13800;BME280;6971;50.028;9.258;2023-11-18T03:40:26;100305.28;;;-0.99;100.00
13800;BME280;6971;50.028;9.258;2023-11-18T03:45:27;100309.63;;;-0.90;100.00
13800;BME280;6971;50.028;9.258;2023-11-18T03:50:28;100311.38;;;-0.86;100.00
13800;BME280;6971;50.028;9.258;2023-11-18T03:55:28;100308.84;;;-0.83;100.00
13800;BME280;6971;50.028;9.258;2023-11-18T04:00:29;100302.84;;;-0.74;100.00
13800;BME280;6971;50.028;9.258;2023-11-18T04:05:30;100302.94;;;-0.60;100.00
13800;BME280;6971;50.028;9.258;2023-11-18T04:10:30;100289.19;;;-0.48;100.00
13800;BME280;6971;50.028;9.258;2023-11-18T04:15:30;100277.97;;;-0.44;100.00
13800;BME280;6971;50.028;9.258;2023-11-18T04:20:31;100291.84;;;-0.34;100.00
13800;BME280;6971;50.028;9.258;2023-11-18T04:25:32;100287.53;;;-0.35;100.00
13800;BME280;6971;50.028;9.258;2023-11-18T04:30:33;100278.88;;;-0.37;100.00
13800;BME280;6971;50.028;9.258;2023-11-18T04:35:33;100278.00;;;-0.36;100.00
13800;BME280;6971;50.028;9.258;2023-11-18T04:40:34;100266.78;;;-0.40;100.00
13800;BME280;6971;50.028;9.258;2023-11-18T04:45:35;100271.94;;;-0.43;100.00
13800;BME280;6971;50.028;9.258;2023-11-18T04:50:35;100280.59;;;-0.41;100.00
13800;BME280;6971;50.028;9.258;2023-11-18T04:55:36;100278.84;;;-0.44;100.00
13800;BME280;6971;50.028;9.258;2023-11-18T05:00:36;100295.28;;;-0.34;100.00
13800;BME280;6971;50.028;9.258;2023-11-18T05:05:38;100303.97;;;-0.30;100.00
13800;BME280;6971;50.028;9.258;2023-11-18T05:10:39;100305.69;;;-0.29;100.00
13800;BME280;6971;50.028;9.258;2023-11-18T05:15:39;100307.41;;;-0.28;100.00
13800;BME280;6971;50.028;9.258;2023-11-18T05:20:40;100310.78;;;-0.46;100.00
13800;BME280;6971;50.028;9.258;2023-11-18T05:25:42;100298.81;;;-0.22;100.00
13800;BME280;6971;50.028;9.258;2023-11-18T05:30:43;100291.84;;;-0.34;100.00
13800;BME280;6971;50.028;9.258;2023-11-18T05:35:46;100299.63;;;-0.34;100.00
13800;BME280;6971;50.028;9.258;2023-11-18T05:40:49;100297.03;;;-0.28;100.00
13800;BME280;6971;50.028;9.258;2023-11-18T05:45:57;100282.38;;;-0.23;100.00
13800;BME280;6971;50.028;9.258;2023-11-18T05:51:26;100281.59;;;-0.05;100.00
13800;BME280;6971;50.028;9.258;2023-11-18T05:56:26;100277.28;;;-0.01;100.00
13800;BME280;6971;50.028;9.258;2023-11-18T06:01:27;100262.53;;;-0.22;100.00
13800;BME280;6971;50.028;9.258;2023-11-18T06:06:27;100261.72;;;-0.07;100.00
13800;BME280;6971;50.028;9.258;2023-11-18T06:11:27;100253.09;;;0.03;100.00
13800;BME280;6971;50.028;9.258;2023-11-18T06:16:31;100240.16;;;0.03;100.00
13800;BME280;6971;50.028;9.258;2023-11-18T06:21:32;100241.03;;;0.19;100.00
13800;BME280;6971;50.028;9.258;2023-11-18T06:26:33;100242.78;;;0.28;100.00
13800;BME280;6971;50.028;9.258;2023-11-18T06:31:36;100248.00;;;0.31;100.00
13800;BME280;6971;50.028;9.258;2023-11-18T06:36:36;100260.09;;;0.42;100.00
13800;BME280;6971;50.028;9.258;2023-11-18T06:41:37;100283.44;;;0.49;100.00
13800;BME280;6971;50.028;9.258;2023-11-18T06:46:48;100299.03;;;0.65;100.00
13800;BME280;6971;50.028;9.258;2023-11-18T06:51:50;100307.66;;;0.58;100.00
13800;BME280;6971;50.028;9.258;2023-11-18T06:56:51;100308.53;;;0.46;100.00
13800;BME280;6971;50.028;9.258;2023-11-18T07:01:53;100299.91;;;0.72;100.00
13800;BME280;6971;50.028;9.258;2023-11-18T07:06:53;100304.22;;;0.85;100.00
13800;BME280;6971;50.028;9.258;2023-11-18T07:11:54;100309.41;;;0.88;100.00
13800;BME280;6971;50.028;9.258;2023-11-18T07:16:56;100308.53;;;1.02;100.00
13800;BME280;6971;50.028;9.258;2023-11-18T07:21:56;100306.81;;;1.16;100.00
13800;BME280;6971;50.028;9.258;2023-11-18T07:26:57;100314.59;;;1.27;100.00
13800;BME280;6971;50.028;9.258;2023-11-18T07:31:59;100309.38;;;1.40;100.00
13800;BME280;6971;50.028;9.258;2023-11-18T07:37:01;100304.13;;;1.52;100.00
13800;BME280;6971;50.028;9.258;2023-11-18T07:42:02;100306.69;;;1.63;100.00
13800;BME280;6971;50.028;9.258;2023-11-18T07:47:02;100299.75;;;1.75;100.00
13800;BME280;6971;50.028;9.258;2023-11-18T07:52:04;100296.22;;;1.88;100.00
13800;BME280;6971;50.028;9.258;2023-11-18T07:57:06;100310.94;;;1.86;100.00
13800;BME280;6971;50.028;9.258;2023-11-18T08:02:10;100308.34;;;1.89;100.00
13800;BME280;6971;50.028;9.258;2023-11-18T08:07:11;100298.78;;;1.99;100.00
13800;BME280;6971;50.028;9.258;2023-11-18T08:12:11;100316.06;;;2.09;100.00
13800;BME280;6971;50.028;9.258;2023-11-18T08:17:11;100327.28;;;2.22;100.00
13800;BME280;6971;50.028;9.258;2023-11-18T08:22:14;100313.34;;;2.33;100.00
13800;BME280;6971;50.028;9.258;2023-11-18T08:27:18;100315.81;;;2.52;100.00
13800;BME280;6971;50.028;9.258;2023-11-18T08:32:19;100314.16;;;2.43;100.00
13800;BME280;6971;50.028;9.258;2023-11-18T08:37:19;100316.63;;;2.63;100.00
13800;BME280;6971;50.028;9.258;2023-11-18T08:42:21;100299.16;;;2.78;100.00
13800;BME280;6971;50.028;9.258;2023-11-18T08:47:22;100299.09;;;2.87;100.00
13800;BME280;6971;50.028;9.258;2023-11-18T08:52:22;100296.38;;;2.99;100.00
13800;BME280;6971;50.028;9.258;2023-11-18T08:57:23;100301.50;;;3.07;100.00
13800;BME280;6971;50.028;9.258;2023-11-18T09:02:25;100293.41;;;3.37;100.00
13800;BME280;6971;50.028;9.258;2023-11-18T09:07:25;100292.28;;;3.61;100.00
13800;BME280;6971;50.028;9.258;2023-11-18T09:12:26;100284.13;;;3.91;100.00
13800;BME280;6971;50.028;9.258;2023-11-18T09:17:28;100290.13;;;3.98;100.00
13800;BME280;6971;50.028;9.258;2023-11-18T09:22:28;100276.72;;;4.24;100.00
13800;BME280;6971;50.028;9.258;2023-11-18T09:27:28;100274.53;;;4.54;100.00
13800;BME280;6971;50.028;9.258;2023-11-18T09:32:29;100287.72;;;4.47;100.00
13800;BME280;6971;50.028;9.258;2023-11-18T09:37:34;100288.56;;;4.47;100.00
13800;BME280;6971;50.028;9.258;2023-11-18T09:42:35;100297.25;;;4.51;100.00
13800;BME280;6971;50.028;9.258;2023-11-18T09:47:42;100306.47;;;4.72;100.00
13800;BME280;6971;50.028;9.258;2023-11-18T09:52:48;100303.72;;;4.81;100.00
13800;BME280;6971;50.028;9.258;2023-11-18T09:57:55;100298.28;;;4.94;100.00
13800;BME280;6971;50.028;9.258;2023-11-18T10:02:59;100286.00;;;4.99;100.00
13800;BME280;6971;50.028;9.258;2023-11-18T10:08:02;100271.47;;;4.84;100.00
13800;BME280;6971;50.028;9.258;2023-11-18T10:13:05;100268.06;;;5.29;100.00
13800;BME280;6971;50.028;9.258;2023-11-18T10:18:22;100270.56;;;5.35;100.00
13800;BME280;6971;50.028;9.258;2023-11-18T10:23:23;100261.75;;;5.41;100.00
13800;BME280;6971;50.028;9.258;2023-11-18T10:28:27;100262.66;;;5.39;100.00
13800;BME280;6971;50.028;9.258;2023-11-18T10:33:28;100266.63;;;5.58;100.00
13800;BME280;6971;50.028;9.258;2023-11-18T10:38:31;100254.94;;;5.77;100.00
13800;BME280;6971;50.028;9.258;2023-11-18T10:43:32;100258.72;;;5.61;100.00
13800;BME280;6971;50.028;9.258;2023-11-18T10:48:36;100243.97;;;5.59;100.00
13800;BME280;6971;50.028;9.258;2023-11-18T10:53:36;100253.91;;;5.41;100.00
13800;BME280;6971;50.028;9.258;2023-11-18T10:58:37;100250.31;;;5.47;100.00
13800;BME280;6971;50.028;9.258;2023-11-18T11:03:53;100235.16;;;5.63;100.00
13800;BME280;6971;50.028;9.258;2023-11-18T11:08:57;100225.00;;;5.90;100.00
13800;BME280;6971;50.028;9.258;2023-11-18T11:14:00;100216.09;;;5.99;100.00
13800;BME280;6971;50.028;9.258;2023-11-18T11:19:04;100211.66;;;6.04;100.00
13800;BME280;6971;50.028;9.258;2023-11-18T11:24:19;100207.22;;;6.06;100.00
13800;BME280;6971;50.028;9.258;2023-11-18T11:29:42;100185.69;;;5.93;100.00
13800;BME280;6971;50.028;9.258;2023-11-18T11:34:56;100179.75;;;5.86;100.00
13800;BME280;6971;50.028;9.258;2023-11-18T11:39:57;100173.00;;;5.74;100.00
13800;BME280;6971;50.028;9.258;2023-11-18T11:44:58;100167.09;;;5.66;100.00
13800;BME280;6971;50.028;9.258;2023-11-18T11:50:16;100149.81;;;5.59;100.00
13800;BME280;6971;50.028;9.258;2023-11-18T12:00:32;100127.16;;;5.59;100.00
13800;BME280;6971;50.028;9.258;2023-11-18T12:05:35;100132.72;;;5.83;100.00
13800;BME280;6971;50.028;9.258;2023-11-18T12:10:35;100112.66;;;5.84;100.00
13800;BME280;6971;50.028;9.258;2023-11-18T12:15:55;100113.19;;;5.98;100.00
13800;BME280;6971;50.028;9.258;2023-11-18T12:20:59;100095.28;;;5.81;100.00
13800;BME280;6971;50.028;9.258;2023-11-18T12:26:37;100100.91;;;6.00;100.00
13800;BME280;6971;50.028;9.258;2023-11-18T12:31:41;100093.50;;;5.82;100.00
13800;BME280;6971;50.028;9.258;2023-11-18T12:37:06;100090.88;;;5.83;100.00
13800;BME280;6971;50.028;9.258;2023-11-18T12:42:25;100083.47;;;6.01;100.00
13800;BME280;6971;50.028;9.258;2023-11-18T12:47:37;100082.81;;;5.91;100.00
13800;BME280;6971;50.028;9.258;2023-11-18T12:52:40;100076.63;;;5.95;100.00
13800;BME280;6971;50.028;9.258;2023-11-18T12:57:48;100048.94;;;5.86;100.00
13800;BME280;6971;50.028;9.258;2023-11-18T13:02:48;100055.66;;;5.97;100.00
13800;BME280;6971;50.028;9.258;2023-11-18T13:07:49;100047.81;;;5.97;100.00
13800;BME280;6971;50.028;9.258;2023-11-18T13:12:50;100050.38;;;5.98;100.00
13800;BME280;6971;50.028;9.258;2023-11-18T13:18:03;100035.25;;;5.75;100.00
13800;BME280;6971;50.028;9.258;2023-11-18T13:23:09;100020.97;;;5.88;100.00
13800;BME280;6971;50.028;9.258;2023-11-18T13:28:09;100010.41;;;5.93;100.00
13800;BME280;6971;50.028;9.258;2023-11-18T13:33:13;99996.31;;;5.99;100.00
13800;BME280;6971;50.028;9.258;2023-11-18T13:38:14;99996.22;;;6.02;100.00
13800;BME280;6971;50.028;9.258;2023-11-18T13:43:14;100010.94;;;6.08;100.00
13800;BME280;6971;50.028;9.258;2023-11-18T13:48:16;100001.91;;;5.83;100.00
13800;BME280;6971;50.028;9.258;2023-11-18T13:53:17;99990.66;;;5.81;100.00
13800;BME280;6971;50.028;9.258;2023-11-18T13:58:17;99993.09;;;5.87;100.00
13800;BME280;6971;50.028;9.258;2023-11-18T14:03:19;99987.91;;;5.86;100.00
13800;BME280;6971;50.028;9.258;2023-11-18T14:08:21;99968.25;;;5.69;100.00
13800;BME280;6971;50.028;9.258;2023-11-18T14:13:21;99977.72;;;5.75;100.00
13800;BME280;6971;50.028;9.258;2023-11-18T14:18:22;99981.44;;;5.66;100.00
13800;BME280;6971;50.028;9.258;2023-11-18T14:23:22;99978.63;;;5.74;100.00
13800;BME280;6971;50.028;9.258;2023-11-18T14:28:23;99952.69;;;5.65;100.00
13800;BME280;6971;50.028;9.258;2023-11-18T14:33:26;99950.22;;;5.58;100.00
13800;BME280;6971;50.028;9.258;2023-11-18T14:38:27;99936.34;;;5.56;100.00
13800;BME280;6971;50.028;9.258;2023-11-18T14:43:27;99930.47;;;5.46;100.00
13800;BME280;6971;50.028;9.258;2023-11-18T14:48:28;99915.19;;;5.31;100.00
13800;BME280;6971;50.028;9.258;2023-11-18T14:53:28;99910.00;;;5.28;100.00
13800;BME280;6971;50.028;9.258;2023-11-18T14:58:28;99930.97;;;5.26;100.00
13800;BME280;6971;50.028;9.258;2023-11-18T15:03:29;99927.63;;;5.19;100.00
13800;BME280;6971;50.028;9.258;2023-11-18T15:08:31;99930.22;;;5.21;100.00
13800;BME280;6971;50.028;9.258;2023-11-18T15:13:31;99925.22;;;5.12;100.00
13800;BME280;6971;50.028;9.258;2023-11-18T15:18:32;99928.63;;;5.14;100.00
13800;BME280;6971;50.028;9.258;2023-11-18T15:23:32;99923.28;;;5.20;100.00
13800;BME280;6971;50.028;9.258;2023-11-18T15:28:32;99922.31;;;5.24;100.00
13800;BME280;6971;50.028;9.258;2023-11-18T15:33:32;99915.59;;;5.12;100.00
13800;BME280;6971;50.028;9.258;2023-11-18T15:38:34;99897.53;;;5.03;100.00
13800;BME280;6971;50.028;9.258;2023-11-18T15:43:35;99898.13;;;5.16;100.00
13800;BME280;6971;50.028;9.258;2023-11-18T15:48:36;99882.59;;;5.08;100.00
13800;BME280;6971;50.028;9.258;2023-11-18T15:53:36;99867.22;;;4.97;100.00
13800;BME280;6971;50.028;9.258;2023-11-18T15:58:36;99840.25;;;4.95;100.00
13800;BME280;6971;50.028;9.258;2023-11-18T16:03:37;99852.50;;;4.93;100.00
13800;BME280;6971;50.028;9.258;2023-11-18T16:08:37;99849.78;;;4.96;100.00
13800;BME280;6971;50.028;9.258;2023-11-18T16:13:38;99857.56;;;4.99;100.00
13800;BME280;6971;50.028;9.258;2023-11-18T16:18:38;99852.41;;;4.96;100.00
13800;BME280;6971;50.028;9.258;2023-11-18T16:23:39;99851.31;;;5.06;100.00
13800;BME280;6971;50.028;9.258;2023-11-18T16:28:39;99832.06;;;5.11;100.00
13800;BME280;6971;50.028;9.258;2023-11-18T16:33:39;99812.13;;;5.06;100.00
13800;BME280;6971;50.028;9.258;2023-11-18T16:38:43;99801.72;;;5.03;100.00
13800;BME280;6971;50.028;9.258;2023-11-18T16:43:45;99815.75;;;5.01;100.00
13800;BME280;6971;50.028;9.258;2023-11-18T16:48:46;99803.50;;;5.01;100.00
13800;BME280;6971;50.028;9.258;2023-11-18T16:53:46;99806.25;;;4.96;100.00
13800;BME280;6971;50.028;9.258;2023-11-18T16:58:47;99789.66;;;4.99;100.00
13800;BME280;6971;50.028;9.258;2023-11-18T17:03:47;99771.66;;;4.87;100.00
13800;BME280;6971;50.028;9.258;2023-11-18T17:08:48;99760.00;;;5.00;100.00
13800;BME280;6971;50.028;9.258;2023-11-18T17:13:48;99756.34;;;5.07;100.00
13800;BME280;6971;50.028;9.258;2023-11-18T17:18:49;99741.69;;;5.02;100.00
13800;BME280;6971;50.028;9.258;2023-11-18T17:23:50;99700.88;;;4.97;100.00
13800;BME280;6971;50.028;9.258;2023-11-18T17:28:50;99709.72;;;4.92;100.00
13800;BME280;6971;50.028;9.258;2023-11-18T17:33:51;99686.09;;;4.96;100.00
13800;BME280;6971;50.028;9.258;2023-11-18T17:38:51;99704.41;;;4.95;100.00
13800;BME280;6971;50.028;9.258;2023-11-18T17:43:51;99701.81;;;4.95;100.00
13800;BME280;6971;50.028;9.258;2023-11-18T17:48:53;99695.59;;;4.99;100.00
13800;BME280;6971;50.028;9.258;2023-11-18T17:53:53;99682.50;;;5.01;100.00
13800;BME280;6971;50.028;9.258;2023-11-18T17:58:53;99665.31;;;4.92;100.00
13800;BME280;6971;50.028;9.258;2023-11-18T18:03:54;99658.34;;;4.92;100.00
13800;BME280;6971;50.028;9.258;2023-11-18T18:08:54;99644.63;;;4.84;100.00
13800;BME280;6971;50.028;9.258;2023-11-18T18:13:55;99630.69;;;4.83;100.00
13800;BME280;6971;50.028;9.258;2023-11-18T18:18:55;99629.56;;;4.94;100.00
13800;BME280;6971;50.028;9.258;2023-11-18T18:23:56;99628.69;;;4.93;100.00
13800;BME280;6971;50.028;9.258;2023-11-18T18:28:57;99616.78;;;4.85;100.00
13800;BME280;6971;50.028;9.258;2023-11-18T18:33:57;99614.16;;;4.85;100.00
13800;BME280;6971;50.028;9.258;2023-11-18T18:38:58;99614.19;;;4.83;100.00
13800;BME280;6971;50.028;9.258;2023-11-18T18:43:58;99581.19;;;4.80;100.00
13800;BME280;6971;50.028;9.258;2023-11-18T18:48:58;99595.69;;;4.91;100.00
13800;BME280;6971;50.028;9.258;2023-11-18T18:53:59;99589.56;;;4.92;100.00
13800;BME280;6971;50.028;9.258;2023-11-18T18:58:59;99593.34;;;4.81;100.00
13800;BME280;6971;50.028;9.258;2023-11-18T19:03:59;99586.13;;;4.91;100.00
13800;BME280;6971;50.028;9.258;2023-11-18T19:09:00;99592.34;;;4.86;100.00
13800;BME280;6971;50.028;9.258;2023-11-18T19:14:02;99597.88;;;4.75;100.00
13800;BME280;6971;50.028;9.258;2023-11-18T19:19:02;99591.63;;;4.80;100.00
13800;BME280;6971;50.028;9.258;2023-11-18T19:24:03;99567.31;;;4.78;100.00
13800;BME280;6971;50.028;9.258;2023-11-18T19:29:03;99554.09;;;4.85;100.00
13800;BME280;6971;50.028;9.258;2023-11-18T19:34:06;99549.03;;;4.78;100.00
13800;BME280;6971;50.028;9.258;2023-11-18T19:39:06;99542.84;;;4.81;100.00
13800;BME280;6971;50.028;9.258;2023-11-18T19:44:07;99556.53;;;4.91;100.00
13800;BME280;6971;50.028;9.258;2023-11-18T19:49:08;99539.44;;;4.79;100.00
13800;BME280;6971;50.028;9.258;2023-11-18T19:54:10;99511.72;;;4.75;100.00
13800;BME280;6971;50.028;9.258;2023-11-18T19:59:10;99511.75;;;4.73;100.00
13800;BME280;6971;50.028;9.258;2023-11-18T20:04:11;99496.09;;;4.73;100.00
13800;BME280;6971;50.028;9.258;2023-11-18T20:09:13;99492.53;;;4.76;100.00
13800;BME280;6971;50.028;9.258;2023-11-18T20:14:13;99471.78;;;4.71;100.00
13800;BME280;6971;50.028;9.258;2023-11-18T20:19:14;99473.56;;;4.69;100.00
13800;BME280;6971;50.028;9.258;2023-11-18T20:24:15;99485.63;;;4.73;100.00
13800;BME280;6971;50.028;9.258;2023-11-18T20:29:16;99478.47;;;4.80;100.00
13800;BME280;6971;50.028;9.258;2023-11-18T20:34:16;99469.63;;;4.86;100.00
13800;BME280;6971;50.028;9.258;2023-11-18T20:39:18;99458.72;;;4.71;100.00
13800;BME280;6971;50.028;9.258;2023-11-18T20:44:18;99453.94;;;4.86;100.00
13800;BME280;6971;50.028;9.258;2023-11-18T20:49:18;99475.03;;;4.79;100.00
13800;BME280;6971;50.028;9.258;2023-11-18T20:54:18;99462.56;;;4.88;100.00
13800;BME280;6971;50.028;9.258;2023-11-18T20:59:19;99456.69;;;4.81;100.00
13800;BME280;6971;50.028;9.258;2023-11-18T21:04:20;99448.91;;;4.79;100.00
13800;BME280;6971;50.028;9.258;2023-11-18T21:09:20;99437.28;;;4.90;100.00
13800;BME280;6971;50.028;9.258;2023-11-18T21:14:21;99438.31;;;4.84;100.00
13800;BME280;6971;50.028;9.258;2023-11-18T21:19:22;99430.34;;;4.89;100.00
13800;BME280;6971;50.028;9.258;2023-11-18T21:24:23;99418.63;;;5.02;100.00
13800;BME280;6971;50.028;9.258;2023-11-18T21:29:23;99407.69;;;4.89;100.00
13800;BME280;6971;50.028;9.258;2023-11-18T21:34:24;99402.34;;;4.94;100.00
13800;BME280;6971;50.028;9.258;2023-11-18T21:39:24;99389.69;;;5.08;100.00
13800;BME280;6971;50.028;9.258;2023-11-18T21:44:26;99376.59;;;5.10;100.00
13800;BME280;6971;50.028;9.258;2023-11-18T21:49:26;99362.66;;;5.09;100.00
13800;BME280;6971;50.028;9.258;2023-11-18T21:54:26;99355.34;;;5.21;100.00
13800;BME280;6971;50.028;9.258;2023-11-18T21:59:30;99357.34;;;5.13;100.00
13800;BME280;6971;50.028;9.258;2023-11-18T22:04:30;99361.69;;;5.12;100.00
13800;BME280;6971;50.028;9.258;2023-11-18T22:09:31;99337.91;;;5.21;100.00
13800;BME280;6971;50.028;9.258;2023-11-18T22:14:34;99329.84;;;5.28;100.00
13800;BME280;6971;50.028;9.258;2023-11-18T22:19:34;99313.75;;;5.15;100.00
13800;BME280;6971;50.028;9.258;2023-11-18T22:24:35;99318.09;;;5.14;100.00
13800;BME280;6971;50.028;9.258;2023-11-18T22:29:36;99330.47;;;5.09;100.00
13800;BME280;6971;50.028;9.258;2023-11-18T22:34:37;99336.34;;;5.16;100.00
13800;BME280;6971;50.028;9.258;2023-11-18T22:39:38;99319.53;;;5.23;100.00
13800;BME280;6971;50.028;9.258;2023-11-18T22:44:39;99288.44;;;5.15;100.00
13800;BME280;6971;50.028;9.258;2023-11-18T22:49:45;99282.16;;;5.21;100.00
13800;BME280;6971;50.028;9.258;2023-11-18T22:54:46;99274.22;;;5.24;100.00
13800;BME280;6971;50.028;9.258;2023-11-18T22:59:47;99245.91;;;5.37;100.00
13800;BME280;6971;50.028;9.258;2023-11-18T23:04:47;99253.69;;;5.39;100.00
13800;BME280;6971;50.028;9.258;2023-11-18T23:09:47;99272.09;;;5.35;100.00
13800;BME280;6971;50.028;9.258;2023-11-18T23:14:48;99262.44;;;5.38;100.00
13800;BME280;6971;50.028;9.258;2023-11-18T23:19:52;99276.47;;;5.35;100.00
13800;BME280;6971;50.028;9.258;2023-11-18T23:24:52;99264.03;;;5.42;100.00
13800;BME280;6971;50.028;9.258;2023-11-18T23:29:53;99239.38;;;5.49;100.00
13800;BME280;6971;50.028;9.258;2023-11-18T23:34:53;99234.03;;;5.52;100.00
13800;BME280;6971;50.028;9.258;2023-11-18T23:39:53;99242.13;;;5.46;100.00
13800;BME280;6971;50.028;9.258;2023-11-18T23:44:54;99235.16;;;5.45;100.00
13800;BME280;6971;50.028;9.258;2023-11-18T23:49:55;99242.94;;;5.46;100.00
13800;BME280;6971;50.028;9.258;2023-11-18T23:54:57;99222.00;;;5.48;100.00
13800;BME280;6971;50.028;9.258;2023-11-18T23:59:57;99210.75;;;5.46;100.00
